createdAt,value
2022-08-22T00:01:10.000Z,72.1
2022-08-22T00:02:27.000Z,72.1
2022-08-22T00:03:43.000Z,72.3
2022-08-22T00:04:59.000Z,72.6
2022-08-22T00:06:15.000Z,72.8
2022-08-22T00:07:31.000Z,73.1
2022-08-22T00:08:47.000Z,73
2022-08-22T00:10:02.000Z,73.2
2022-08-22T00:11:17.000Z,73.2
2022-08-22T00:12:32.000Z,73.1
2022-08-22T00:13:48.000Z,73.2
2022-08-22T00:15:05.000Z,73.3
2022-08-22T00:16:21.000Z,73.6
2022-08-22T00:17:37.000Z,73.9
2022-08-22T00:18:52.000Z,74
2022-08-22T00:20:08.000Z,74
2022-08-22T00:21:25.000Z,74.3
2022-08-22T00:22:41.000Z,74.4
2022-08-22T00:23:57.000Z,74.7
2022-08-22T00:25:13.000Z,74.7
2022-08-22T00:26:29.000Z,74.7
2022-08-22T00:27:46.000Z,74.7
2022-08-22T00:29:02.000Z,74.9
2022-08-22T00:30:18.000Z,74.9
2022-08-22T00:31:34.000Z,74.7
2022-08-22T00:32:50.000Z,74.6
2022-08-22T00:34:07.000Z,74.6
2022-08-22T00:35:22.000Z,74.5
2022-08-22T00:36:38.000Z,74.6
2022-08-22T00:37:53.000Z,74.4
2022-08-22T00:40:25.000Z,74.1
2022-08-22T00:41:41.000Z,74.2
2022-08-22T00:42:56.000Z,74.1
2022-08-22T00:44:11.000Z,74.2
2022-08-22T00:45:27.000Z,74.4
2022-08-22T00:46:44.000Z,74.4
2022-08-22T00:48:00.000Z,74.4
2022-08-22T00:49:16.000Z,74.5
2022-08-22T00:50:32.000Z,74.7
2022-08-22T00:51:48.000Z,74.8
2022-08-22T00:54:21.000Z,74.8
2022-08-22T00:55:37.000Z,74.8
2022-08-22T00:56:53.000Z,74.8
2022-08-22T00:58:09.000Z,75.1
2022-08-22T00:59:26.000Z,75
2022-08-22T01:00:41.000Z,75.1
2022-08-22T01:01:57.000Z,75.5
2022-08-22T01:03:13.000Z,75.5
2022-08-22T01:04:29.000Z,75.5
2022-08-22T01:05:46.000Z,75.4
2022-08-22T01:07:02.000Z,75.4
2022-08-22T01:08:18.000Z,75.3
2022-08-22T01:09:34.000Z,75.4
2022-08-22T01:10:49.000Z,75.5
2022-08-22T01:12:05.000Z,75.6
2022-08-22T01:13:20.000Z,75.8
2022-08-22T01:14:35.000Z,75.9
2022-08-22T01:15:51.000Z,75.9
2022-08-22T01:17:07.000Z,75.9
2022-08-22T01:18:24.000Z,75.9
2022-08-22T01:19:40.000Z,75.7
2022-08-22T01:20:56.000Z,75.5
2022-08-22T01:22:12.000Z,75.3
2022-08-22T01:23:28.000Z,75.1
2022-08-22T01:24:45.000Z,75.1
2022-08-22T01:26:01.000Z,75.4
2022-08-22T01:27:17.000Z,75.6
2022-08-22T01:28:33.000Z,75.7
2022-08-22T01:29:49.000Z,75.6
2022-08-22T01:31:04.000Z,75.7
2022-08-22T01:32:21.000Z,75.6
2022-08-22T01:33:37.000Z,75.5
2022-08-22T01:34:53.000Z,75.6
2022-08-22T01:36:09.000Z,75.6
2022-08-22T01:37:25.000Z,75.8
2022-08-22T01:38:42.000Z,76
2022-08-22T01:39:57.000Z,76.2
2022-08-22T01:41:12.000Z,76.2
2022-08-22T01:42:27.000Z,76.3
2022-08-22T01:43:43.000Z,76.3
2022-08-22T01:44:59.000Z,76.2
2022-08-22T01:46:15.000Z,76.1
2022-08-22T01:47:31.000Z,76.2
2022-08-22T01:48:47.000Z,76.3
2022-08-22T01:50:03.977Z,76.4
2022-08-22T01:51:20.000Z,76.4
2022-08-22T01:52:36.000Z,76.6
2022-08-22T01:53:52.000Z,76.8
2022-08-22T01:55:08.000Z,76.8
2022-08-22T01:57:41.000Z,76.5
2022-08-22T01:58:57.000Z,76.4
2022-08-22T02:00:12.000Z,76.2
2022-08-22T02:01:28.000Z,76.3
2022-08-22T02:02:44.000Z,76.2
2022-08-22T02:04:01.000Z,76.3
2022-08-22T02:05:17.000Z,76.2
2022-08-22T02:06:33.000Z,76.5
2022-08-22T02:07:49.000Z,76.5
2022-08-22T02:09:05.000Z,76.7
2022-08-22T02:10:21.000Z,76.5
2022-08-22T02:11:36.000Z,76.5
2022-08-22T02:12:51.000Z,76.5
2022-08-22T02:14:06.000Z,76.5
2022-08-22T02:15:22.000Z,76.1
2022-08-22T02:16:39.000Z,76.1
2022-08-22T02:17:55.000Z,76
2022-08-22T02:19:11.000Z,76.1
2022-08-22T02:20:27.000Z,76.1
2022-08-22T02:21:43.000Z,76
2022-08-22T02:23:00.000Z,76.2
2022-08-22T02:24:16.000Z,76.3
2022-08-22T02:25:32.000Z,76.8
2022-08-22T02:26:48.000Z,77
2022-08-22T02:28:04.000Z,76.8
2022-08-22T02:29:21.000Z,76.5
2022-08-22T02:30:36.000Z,76.5
2022-08-22T02:31:52.000Z,76.8
2022-08-22T02:33:08.000Z,76.8
2022-08-22T02:34:24.000Z,76.8
2022-08-22T02:35:41.000Z,76.8
2022-08-22T02:36:57.000Z,76.8
2022-08-22T02:38:13.000Z,76.8
2022-08-22T02:39:28.000Z,76.8
2022-08-22T02:40:43.000Z,76.7
2022-08-22T02:42:00.000Z,76.8
2022-08-22T02:43:16.000Z,76.5
2022-08-22T02:44:32.000Z,76.7
2022-08-22T02:45:48.000Z,76.8
2022-08-22T02:47:03.000Z,76.5
2022-08-22T02:48:19.000Z,76.5
2022-08-22T02:49:35.000Z,76.5
2022-08-22T02:50:51.000Z,76.5
2022-08-22T02:52:07.000Z,76.3
2022-08-22T02:53:23.000Z,76.3
2022-08-22T02:54:40.000Z,76.2
2022-08-22T02:55:56.000Z,76.3
2022-08-22T02:57:12.000Z,76.2
2022-08-22T02:58:28.000Z,76.7
2022-08-22T03:01:01.000Z,76.8
2022-08-22T03:02:17.000Z,76.8
2022-08-22T03:03:33.000Z,76.8
2022-08-22T03:04:48.000Z,77
2022-08-22T03:06:04.000Z,77.2
2022-08-22T03:07:20.000Z,77.4
2022-08-22T03:08:37.000Z,77.6
2022-08-22T03:09:53.000Z,77.7
2022-08-22T03:11:09.000Z,77.5
2022-08-22T03:12:25.000Z,77.4
2022-08-22T03:13:41.000Z,77.5
2022-08-22T03:14:57.000Z,77.4
2022-08-22T03:16:12.000Z,77.2
2022-08-22T03:17:28.000Z,77.2
2022-08-22T03:18:43.000Z,77.2
2022-08-22T03:19:59.000Z,77.2
2022-08-22T03:21:15.000Z,77.2
2022-08-22T03:22:31.000Z,76.8
2022-08-22T03:23:47.000Z,76.8
2022-08-22T03:25:03.000Z,76.9
2022-08-22T03:26:19.000Z,77.1
2022-08-22T03:27:36.000Z,77.2
2022-08-22T03:28:52.000Z,77.2
2022-08-22T03:30:08.000Z,77.2
2022-08-22T03:31:24.000Z,77.2
2022-08-22T03:32:40.000Z,77.4
2022-08-22T03:33:57.000Z,77.2
2022-08-22T03:35:13.000Z,77.2
2022-08-22T03:36:28.000Z,77.3
2022-08-22T03:37:44.000Z,77.3
2022-08-22T03:39:00.000Z,77.5
2022-08-22T03:40:17.000Z,77.5
2022-08-22T03:41:33.000Z,77.5
2022-08-22T03:42:49.000Z,77.4
2022-08-22T03:44:05.000Z,77.2
2022-08-22T03:45:20.000Z,77.4
2022-08-22T03:46:36.000Z,77.5
2022-08-22T03:47:52.000Z,77.6
2022-08-22T03:49:07.000Z,77.7
2022-08-22T03:50:22.000Z,77.8
2022-08-22T03:51:38.000Z,77.7
2022-08-22T03:52:55.000Z,77.5
2022-08-22T03:54:11.000Z,77.4
2022-08-22T03:55:27.000Z,77.6
2022-08-22T03:56:43.000Z,77.8
2022-08-22T03:57:59.000Z,77.8
2022-08-22T03:59:16.000Z,78.1
2022-08-22T04:00:32.000Z,78.2
2022-08-22T04:01:48.000Z,78.7
2022-08-22T04:03:04.000Z,78.9
2022-08-22T04:04:20.000Z,78.9
2022-08-22T04:05:37.000Z,78.6
2022-08-22T04:06:52.000Z,78.4
2022-08-22T04:08:08.000Z,78.3
2022-08-22T04:09:24.000Z,77.9
2022-08-22T04:10:40.000Z,77.6
2022-08-22T04:11:57.000Z,77.6
2022-08-22T04:13:13.000Z,77.5
2022-08-22T04:14:29.000Z,77.2
2022-08-22T04:15:44.000Z,77
2022-08-22T04:16:59.000Z,76.8
2022-08-22T04:18:15.000Z,76.8
2022-08-22T04:19:30.000Z,77
2022-08-22T04:20:46.000Z,77
2022-08-22T04:22:02.000Z,77.2
2022-08-22T04:23:18.000Z,77.4
2022-08-22T04:24:35.000Z,77.6
2022-08-22T04:25:51.000Z,77.9
2022-08-22T04:27:07.000Z,78
2022-08-22T04:28:23.000Z,78.1
2022-08-22T04:29:39.000Z,77.9
2022-08-22T04:30:56.000Z,77.8
2022-08-22T04:32:12.000Z,78
2022-08-22T04:33:27.000Z,78.3
2022-08-22T04:34:43.000Z,78.7
2022-08-22T04:35:59.000Z,79
2022-08-22T04:37:16.000Z,79.2
2022-08-22T04:38:32.000Z,79.2
2022-08-22T04:39:48.000Z,79.3
2022-08-22T04:42:20.000Z,79.2
2022-08-22T04:43:36.000Z,78.9
2022-08-22T04:44:53.000Z,78.7
2022-08-22T04:46:08.000Z,78.8
2022-08-22T04:47:23.000Z,78.9
2022-08-22T04:48:39.000Z,78.7
2022-08-22T04:49:55.000Z,78.6
2022-08-22T04:51:10.000Z,78.7
2022-08-22T04:52:26.000Z,78.5
2022-08-22T04:54:58.000Z,78.4
2022-08-22T04:56:15.000Z,78.3
2022-08-22T04:57:31.000Z,78.6
2022-08-22T04:58:47.000Z,78.7
2022-08-22T05:00:03.000Z,78.3
2022-08-22T05:01:19.000Z,78.4
2022-08-22T05:02:35.000Z,78.3
2022-08-22T05:03:52.000Z,78.2
2022-08-22T05:05:08.000Z,78
2022-08-22T05:06:24.000Z,77.9
2022-08-22T05:07:39.000Z,77.9
2022-08-22T05:08:55.000Z,78
2022-08-22T05:10:12.000Z,78
2022-08-22T05:11:28.000Z,77.9
2022-08-22T05:12:44.000Z,77.6
2022-08-22T05:14:00.000Z,77.8
2022-08-22T05:15:16.000Z,77.7
2022-08-22T05:16:33.000Z,77.7
2022-08-22T05:17:49.000Z,77.7
2022-08-22T05:19:04.000Z,77.6
2022-08-22T05:20:19.000Z,77.6
2022-08-22T05:21:35.000Z,77.6
2022-08-22T05:22:51.000Z,77.2
2022-08-22T05:24:06.000Z,76.9
2022-08-22T05:25:22.000Z,76.5
2022-08-22T05:26:38.000Z,76.5
2022-08-22T05:27:54.000Z,76.7
2022-08-22T05:29:11.000Z,76.5
2022-08-22T05:30:27.000Z,76.2
2022-08-22T05:31:43.000Z,76
2022-08-22T05:32:59.000Z,75.5
2022-08-22T05:34:15.000Z,74.7
2022-08-22T05:35:32.000Z,74.9
2022-08-22T05:36:48.000Z,75
2022-08-22T05:38:04.000Z,74.8
2022-08-22T05:39:20.000Z,73.7
2022-08-22T05:40:35.000Z,71.8
2022-08-22T05:41:52.000Z,70.4
2022-08-22T05:43:08.000Z,68.1
2022-08-22T05:44:24.000Z,66
2022-08-22T05:45:40.000Z,64.6
2022-08-22T05:46:56.000Z,62.5
2022-08-22T05:48:13.000Z,60.9
2022-08-22T05:49:28.000Z,59.5
2022-08-22T05:50:43.000Z,58.9
2022-08-22T05:51:59.000Z,58.4
2022-08-22T05:53:14.000Z,57.4
2022-08-22T05:54:30.000Z,56.3
2022-08-22T05:55:46.000Z,55.3
2022-08-22T05:57:02.000Z,54.9
2022-08-22T05:58:18.000Z,55
2022-08-22T05:59:34.000Z,57.4
2022-08-22T06:00:51.000Z,59.8
2022-08-22T06:02:07.000Z,61.6
2022-08-22T06:03:23.000Z,63
2022-08-22T06:04:39.000Z,64.6
2022-08-22T06:05:55.000Z,65.9
2022-08-22T06:07:12.000Z,66.7
2022-08-22T06:08:28.000Z,67.4
2022-08-22T06:11:00.000Z,66.2
2022-08-22T06:12:16.000Z,62.9
2022-08-22T06:13:32.000Z,62.1
2022-08-22T06:14:48.000Z,60.7
2022-08-22T06:16:04.000Z,61
2022-08-22T06:17:20.000Z,59.3
2022-08-22T06:18:36.000Z,56.6
2022-08-22T06:19:53.000Z,54.3
2022-08-22T06:21:09.000Z,52.9
2022-08-22T06:22:24.000Z,52.3
2022-08-22T06:23:39.000Z,51.3
2022-08-22T06:24:54.000Z,51
2022-08-22T06:26:10.000Z,51.5
2022-08-22T06:27:26.000Z,52.5
2022-08-22T06:28:42.000Z,54.2
2022-08-22T06:29:58.000Z,56.1
2022-08-22T06:31:14.000Z,57.7
2022-08-22T06:32:31.000Z,59
2022-08-22T06:33:47.000Z,59.7
2022-08-22T06:35:03.000Z,60.3
2022-08-22T06:36:19.000Z,60.7
2022-08-22T06:37:35.000Z,61.8
2022-08-22T06:38:52.000Z,61.5
2022-08-22T06:40:08.000Z,58.2
2022-08-22T06:41:24.000Z,57.2
2022-08-22T06:42:39.000Z,57.4
2022-08-22T06:43:55.000Z,59
2022-08-22T06:45:12.000Z,61.3
2022-08-22T06:46:28.000Z,62.3
2022-08-22T06:50:16.000Z,58.3
2022-08-22T06:51:33.000Z,61.1
2022-08-22T06:52:48.000Z,63
2022-08-22T06:54:04.000Z,62.6
2022-08-22T06:55:20.000Z,59.9
2022-08-22T06:56:36.000Z,57.3
2022-08-22T06:57:53.000Z,59.2
2022-08-22T06:59:09.000Z,61.3
2022-08-22T07:01:41.000Z,63.1
2022-08-22T07:02:57.000Z,63.2
2022-08-22T07:04:14.000Z,63.6
2022-08-22T07:05:30.000Z,64.7
2022-08-22T07:06:46.000Z,65.2
2022-08-22T07:08:02.000Z,64.8
2022-08-22T07:09:17.000Z,64
2022-08-22T07:10:34.000Z,62.8
2022-08-22T07:11:50.000Z,60.9
2022-08-22T07:13:06.000Z,62.2
2022-08-22T07:14:22.000Z,63.5
2022-08-22T07:15:38.000Z,63.3
2022-08-22T07:16:55.000Z,63.2
2022-08-22T07:18:11.000Z,64.1
2022-08-22T07:19:26.000Z,64.2
2022-08-22T07:20:41.000Z,64.2
2022-08-22T07:21:56.000Z,64.6
2022-08-22T07:23:12.000Z,63.9
2022-08-22T07:24:28.000Z,62.8
2022-08-22T07:25:44.000Z,62.1
2022-08-22T07:27:00.000Z,60.6
2022-08-22T07:28:16.000Z,58.7
2022-08-22T07:29:33.000Z,56.7
2022-08-22T07:30:49.000Z,54.9
2022-08-22T07:32:05.000Z,55.8
2022-08-22T07:33:21.000Z,55.2
2022-08-22T07:34:37.000Z,56
2022-08-22T07:35:54.000Z,55.8
2022-08-22T07:37:10.000Z,55.5
2022-08-22T07:38:26.000Z,55.3
2022-08-22T07:39:41.000Z,56.1
2022-08-22T07:40:57.000Z,55.2
2022-08-22T07:42:14.000Z,53.4
2022-08-22T07:43:30.000Z,52.8
2022-08-22T07:44:46.000Z,52.5
2022-08-22T07:46:02.000Z,50.6
2022-08-22T07:47:18.000Z,48.1
2022-08-22T07:48:34.000Z,48.7
2022-08-22T07:49:49.000Z,49.7
2022-08-22T07:51:05.000Z,50.9
2022-08-22T07:52:21.000Z,50.5
2022-08-22T07:53:37.000Z,50.3
2022-08-22T07:54:53.000Z,50.8
2022-08-22T07:56:08.000Z,50.6
2022-08-22T07:57:24.000Z,53
2022-08-22T07:58:40.000Z,53.1
2022-08-22T07:59:55.000Z,54
2022-08-22T08:01:11.000Z,54.1
2022-08-22T08:02:27.000Z,53.3
2022-08-22T08:04:59.000Z,54.2
2022-08-22T08:06:15.000Z,55.9
2022-08-22T08:07:32.000Z,55.7
2022-08-22T08:08:48.000Z,55.7
2022-08-22T08:10:04.000Z,56.1
2022-08-22T08:11:20.000Z,56.2
2022-08-22T08:12:36.000Z,56.4
2022-08-22T08:13:53.000Z,56.6
2022-08-22T08:15:09.000Z,56.3
2022-08-22T08:16:25.000Z,55.7
2022-08-22T08:17:40.000Z,55.4
2022-08-22T08:18:56.000Z,54.7
2022-08-22T08:20:13.000Z,54.3
2022-08-22T08:21:29.000Z,53.8
2022-08-22T08:22:45.000Z,54
2022-08-22T08:24:01.000Z,54.6
2022-08-22T08:25:17.000Z,56.1
2022-08-22T08:26:33.000Z,56.4
2022-08-22T08:27:49.000Z,56.6
2022-08-22T08:29:04.000Z,55.9
2022-08-22T08:30:19.000Z,54.8
2022-08-22T08:31:34.000Z,53.9
2022-08-22T08:32:51.000Z,52.9
2022-08-22T08:34:07.000Z,52.2
2022-08-22T08:35:23.000Z,51.9
2022-08-22T08:36:39.000Z,50.6
2022-08-22T08:37:55.000Z,50.6
2022-08-22T08:39:12.000Z,50.8
2022-08-22T08:40:28.000Z,50.1
2022-08-22T08:41:44.000Z,50.1
2022-08-22T08:43:00.000Z,49.8
2022-08-22T08:44:16.000Z,50.1
2022-08-22T08:45:33.000Z,50.6
2022-08-22T08:46:49.000Z,49.9
2022-08-22T08:48:04.000Z,48.9
2022-08-22T08:49:20.000Z,48.6
2022-08-22T08:50:36.000Z,47.7
2022-08-22T08:51:53.000Z,47.1
2022-08-22T08:53:09.000Z,46.3
2022-08-22T08:54:25.000Z,46
2022-08-22T08:55:41.000Z,44.8
2022-08-22T08:56:56.000Z,44.5
2022-08-22T08:58:12.000Z,43.8
2022-08-22T08:59:28.000Z,43.4
2022-08-22T09:00:43.000Z,44.3
2022-08-22T09:01:59.000Z,44
2022-08-22T09:03:14.000Z,43.9
2022-08-22T09:04:31.000Z,45.3
2022-08-22T09:05:47.000Z,46.1
2022-08-22T09:07:03.000Z,47.3
2022-08-22T09:08:19.000Z,47
2022-08-22T09:09:35.000Z,46.6
2022-08-22T09:10:52.000Z,46.5
2022-08-22T09:12:08.000Z,46.6
2022-08-22T09:13:24.000Z,46.4
2022-08-22T09:14:40.000Z,45.8
2022-08-22T09:15:56.000Z,45.7
2022-08-22T09:17:13.000Z,45.1
2022-08-22T09:18:29.000Z,44.1
2022-08-22T09:19:44.000Z,44.8
2022-08-22T09:21:00.000Z,44.3
2022-08-22T09:22:16.000Z,45
2022-08-22T09:23:33.000Z,44.8
2022-08-22T09:24:49.000Z,45.4
2022-08-22T09:26:05.000Z,45.9
2022-08-22T09:27:21.000Z,46.5
2022-08-22T09:28:36.000Z,46.6
2022-08-22T09:29:52.000Z,46.8
2022-08-22T09:31:08.000Z,45.7
2022-08-22T09:33:40.000Z,44.1
2022-08-22T09:34:55.000Z,43.5
2022-08-22T09:36:11.000Z,43.4
2022-08-22T09:37:27.000Z,42.9
2022-08-22T09:38:43.000Z,42.9
2022-08-22T09:39:59.000Z,44.4
2022-08-22T09:41:15.000Z,45.3
2022-08-22T09:42:32.000Z,45.7
2022-08-22T09:46:20.000Z,45.2
2022-08-22T09:47:36.000Z,46.7
2022-08-22T09:48:53.000Z,46.8
2022-08-22T09:50:09.000Z,45.6
2022-08-22T09:51:24.000Z,45.1
2022-08-22T09:52:39.000Z,45
2022-08-22T09:53:55.000Z,44.3
2022-08-22T09:55:12.000Z,43.9
2022-08-22T09:56:28.000Z,43.5
2022-08-22T09:57:44.000Z,43.5
2022-08-22T09:59:00.000Z,43.5
2022-08-22T10:00:16.000Z,43.6
2022-08-22T10:01:33.000Z,44.3
2022-08-22T10:02:49.000Z,45
2022-08-22T10:04:05.000Z,45.6
2022-08-22T10:05:21.000Z,45.4
2022-08-22T10:06:36.000Z,46
2022-08-22T10:07:52.000Z,46.3
2022-08-22T10:09:08.000Z,45.7
2022-08-22T10:11:40.000Z,45.4
2022-08-22T10:12:56.000Z,44.8
2022-08-22T10:15:29.000Z,44.1
2022-08-22T10:16:45.000Z,45.2
2022-08-22T10:18:01.000Z,45.8
2022-08-22T10:19:17.000Z,45.3
2022-08-22T10:20:33.000Z,45.3
2022-08-22T10:21:50.000Z,45.1
2022-08-22T10:23:05.000Z,44.6
2022-08-22T10:24:20.000Z,44.4
2022-08-22T10:25:36.000Z,43.8
2022-08-22T10:26:53.000Z,42.9
2022-08-22T10:28:09.000Z,42.6
2022-08-22T10:29:25.000Z,42.5
2022-08-22T10:30:41.000Z,42.9
2022-08-22T10:31:57.000Z,41.8
2022-08-22T10:33:13.000Z,42.9
2022-08-22T10:34:30.000Z,43.3
2022-08-22T10:35:46.000Z,42.4
2022-08-22T10:37:01.000Z,42.7
2022-08-22T10:38:16.000Z,43.1
2022-08-22T10:39:33.000Z,43.6
2022-08-22T10:40:49.000Z,43.7
2022-08-22T10:42:05.000Z,43.4
2022-08-22T10:43:21.000Z,42.6
2022-08-22T10:44:37.000Z,42.9
2022-08-22T10:45:54.000Z,43.3
2022-08-22T10:47:10.000Z,42.3
2022-08-22T10:48:26.000Z,42.2
2022-08-22T10:49:42.000Z,41.6
2022-08-22T10:50:58.000Z,42.2
2022-08-22T10:52:14.000Z,42.3
2022-08-22T10:53:31.000Z,41.1
2022-08-22T10:54:46.000Z,41.2
2022-08-22T10:56:02.000Z,41.4
2022-08-22T10:57:18.000Z,40.9
2022-08-22T10:58:34.000Z,40.8
2022-08-22T10:59:51.000Z,41.2
2022-08-22T11:01:07.000Z,41.3
2022-08-22T11:02:23.000Z,40.6
2022-08-22T11:03:38.000Z,41.3
2022-08-22T11:04:53.000Z,40.8
2022-08-22T11:06:09.000Z,41
2022-08-22T11:07:24.000Z,41.2
2022-08-22T11:08:40.000Z,41.1
2022-08-22T11:09:56.000Z,41.5
2022-08-22T11:11:13.000Z,41.6
2022-08-22T11:12:29.000Z,41.1
2022-08-22T11:15:01.000Z,41.1
2022-08-22T11:16:17.000Z,41.2
2022-08-22T11:17:33.000Z,40.8
2022-08-22T11:18:50.000Z,41.6
2022-08-22T11:20:06.000Z,42.5
2022-08-22T11:21:22.000Z,42.8
2022-08-22T11:22:38.000Z,43
2022-08-22T11:23:53.000Z,42.7
2022-08-22T11:25:10.000Z,42.8
2022-08-22T11:26:26.000Z,43.2
2022-08-22T11:27:42.000Z,42.4
2022-08-22T11:28:58.000Z,41.3
2022-08-22T11:30:14.000Z,41.5
2022-08-22T11:31:31.000Z,41.4
2022-08-22T11:32:47.000Z,41.6
2022-08-22T11:34:02.000Z,42.3
2022-08-22T11:35:17.000Z,42
2022-08-22T11:36:33.000Z,42
2022-08-22T11:37:48.000Z,41.3
2022-08-22T11:39:04.000Z,41.2
2022-08-22T11:40:20.000Z,40.5
2022-08-22T11:41:36.000Z,41.3
2022-08-22T11:42:53.000Z,41.4
2022-08-22T11:44:09.000Z,42.1
2022-08-22T11:45:25.000Z,42.4
2022-08-22T11:46:41.000Z,42.3
2022-08-22T11:47:57.000Z,42.3
2022-08-22T11:49:13.000Z,42.4
2022-08-22T11:50:30.000Z,42.5
2022-08-22T11:53:02.000Z,41.8
2022-08-22T11:54:17.000Z,42
2022-08-22T11:55:33.000Z,41.5
2022-08-22T11:56:50.000Z,41.4
2022-08-22T11:58:06.000Z,41.1
2022-08-22T11:59:22.000Z,41
2022-08-22T12:00:38.000Z,41.3
2022-08-22T12:01:54.000Z,41
2022-08-22T12:03:11.000Z,41.8
2022-08-22T12:04:26.000Z,42.5
2022-08-22T12:05:41.000Z,41.8
2022-08-22T12:06:57.000Z,41.3
2022-08-22T12:08:13.000Z,41.1
2022-08-22T12:09:30.000Z,41.1
2022-08-22T12:10:46.000Z,41
2022-08-22T12:12:02.000Z,41
2022-08-22T12:13:18.000Z,41
2022-08-22T12:14:34.000Z,41.4
2022-08-22T12:15:51.000Z,41.5
2022-08-22T12:17:07.000Z,41.7
2022-08-22T12:18:23.000Z,41.6
2022-08-22T12:19:39.000Z,41.4
2022-08-22T12:20:55.000Z,41.5
2022-08-22T12:25:59.000Z,40.9
2022-08-22T12:27:14.000Z,40.8
2022-08-22T12:28:30.000Z,40.8
2022-08-22T12:29:45.000Z,40.4
2022-08-22T12:33:32.000Z,39.9
2022-08-22T12:34:49.000Z,40.1
2022-08-22T12:36:05.000Z,40.4
2022-08-22T12:37:21.000Z,40.6
2022-08-22T12:38:37.000Z,40.4
2022-08-22T12:39:53.000Z,40.4
2022-08-22T12:41:10.000Z,40.9
2022-08-22T12:42:26.000Z,41.8
2022-08-22T12:43:42.000Z,42.4
2022-08-22T12:44:58.000Z,43.3
2022-08-22T12:46:13.000Z,43.5
2022-08-22T12:47:29.000Z,42.8
2022-08-22T12:48:45.000Z,42.9
2022-08-22T12:50:01.000Z,42.9
2022-08-22T12:51:17.000Z,42.2
2022-08-22T12:52:33.000Z,41.9
2022-08-22T12:53:50.000Z,41.5
2022-08-22T12:56:22.000Z,41.3
2022-08-22T12:57:38.000Z,41.4
2022-08-22T12:58:54.000Z,40.8
2022-08-22T13:00:11.000Z,40.8
2022-08-22T13:01:27.000Z,40.7
2022-08-22T13:02:43.000Z,40
2022-08-22T13:03:58.000Z,40.4
2022-08-22T13:05:14.000Z,41.1
2022-08-22T13:06:31.000Z,40.6
2022-08-22T13:07:47.000Z,41.2
2022-08-22T13:09:03.000Z,40.9
2022-08-22T13:10:19.000Z,40.3
2022-08-22T13:11:35.000Z,39.7
2022-08-22T13:12:52.000Z,40
2022-08-22T13:14:08.000Z,40
2022-08-22T13:15:23.000Z,40.1
2022-08-22T13:16:38.000Z,39.8
2022-08-22T13:17:54.000Z,39.6
2022-08-22T13:19:10.000Z,39.6
2022-08-22T13:21:41.000Z,39.6
2022-08-22T13:22:57.000Z,40.2
2022-08-22T13:24:13.000Z,39.5
2022-08-22T13:25:30.000Z,40.3
2022-08-22T13:26:46.000Z,39.3
2022-08-22T13:28:02.000Z,39.5
2022-08-22T13:29:18.000Z,39.7
2022-08-22T13:30:34.000Z,39.9
2022-08-22T13:31:51.000Z,40.5
2022-08-22T13:33:07.000Z,40.7
2022-08-22T13:34:23.000Z,40.6
2022-08-22T13:35:39.000Z,40.5
2022-08-22T13:36:54.000Z,40.4
2022-08-22T13:38:11.000Z,39.8
2022-08-22T13:39:27.000Z,40.5
2022-08-22T13:40:43.000Z,40.1
2022-08-22T13:41:59.000Z,39.5
2022-08-22T13:43:15.000Z,39.8
2022-08-22T13:44:32.000Z,39.8
2022-08-22T13:45:48.000Z,39.7
2022-08-22T13:47:04.000Z,40.4
2022-08-22T13:48:19.000Z,39.7
2022-08-22T13:49:34.000Z,40.1
2022-08-22T13:50:51.000Z,40.6
2022-08-22T13:52:06.000Z,40.5
2022-08-22T13:53:22.000Z,39.4
2022-08-22T13:54:37.000Z,39.6
2022-08-22T13:55:53.000Z,39.6
2022-08-22T13:57:10.000Z,40.2
2022-08-22T13:59:42.000Z,39.9
2022-08-22T14:00:58.000Z,40.1
2022-08-22T14:02:14.000Z,39.6
2022-08-22T14:03:31.000Z,39.7
2022-08-22T14:04:47.000Z,39.8
2022-08-22T14:06:03.000Z,39.6
2022-08-22T14:07:19.000Z,39.6
2022-08-22T14:08:35.000Z,39.6
2022-08-22T14:09:52.000Z,39.3
2022-08-22T14:11:07.000Z,39.2
2022-08-22T14:12:23.000Z,39.2
2022-08-22T14:13:39.000Z,39.6
2022-08-22T14:14:55.000Z,39.7
2022-08-22T14:16:12.000Z,39.1
2022-08-22T14:17:28.000Z,39.4
2022-08-22T14:18:44.000Z,38.9
2022-08-22T14:19:59.000Z,39.3
2022-08-22T14:21:14.000Z,39.2
2022-08-22T14:22:30.000Z,39.3
2022-08-22T14:23:45.000Z,39.4
2022-08-22T14:25:01.000Z,39.6
2022-08-22T14:26:17.000Z,39.9
2022-08-22T14:27:33.000Z,39.8
2022-08-22T14:28:50.000Z,39.5
2022-08-22T14:30:06.000Z,39.6
2022-08-22T14:31:22.000Z,40.3
2022-08-22T14:32:38.000Z,40.1
2022-08-22T14:33:54.000Z,40.2
2022-08-22T14:35:11.000Z,40.9
2022-08-22T14:37:43.000Z,39.4
2022-08-22T14:38:59.000Z,39.6
2022-08-22T14:40:14.000Z,39.5
2022-08-22T14:41:31.000Z,39.6
2022-08-22T14:42:47.000Z,39.5
2022-08-22T14:44:03.000Z,39.5
2022-08-22T14:45:19.000Z,39.7
2022-08-22T14:46:35.000Z,40.2
2022-08-22T14:47:52.000Z,40.6
2022-08-22T14:49:08.000Z,40.1
2022-08-22T14:50:23.000Z,39.6
2022-08-22T14:51:38.000Z,39.7
2022-08-22T14:52:53.000Z,39.4
2022-08-22T14:54:09.000Z,39.9
2022-08-22T14:55:25.000Z,39.9
2022-08-22T14:56:41.000Z,40.4
2022-08-22T14:57:57.000Z,39.7
2022-08-22T14:59:13.000Z,39.7
2022-08-22T15:00:30.000Z,39.7
2022-08-22T15:03:02.000Z,40
2022-08-22T15:04:18.000Z,40.1
2022-08-22T15:05:34.000Z,39.9
2022-08-22T15:06:51.000Z,39.9
2022-08-22T15:08:07.000Z,40
2022-08-22T15:09:23.000Z,40.2
2022-08-22T15:10:38.000Z,40.1
2022-08-22T15:11:54.000Z,40
2022-08-22T15:13:11.000Z,40.2
2022-08-22T15:14:27.000Z,40.8
2022-08-22T15:15:43.000Z,41
2022-08-22T15:16:59.000Z,41.3
2022-08-22T15:18:15.000Z,40.9
2022-08-22T15:19:32.000Z,40.7
2022-08-22T15:20:47.000Z,41
2022-08-22T15:22:02.000Z,40.7
2022-08-22T15:23:17.000Z,40.7
2022-08-22T15:24:32.000Z,40.6
2022-08-22T15:25:49.000Z,40.8
2022-08-22T15:27:05.000Z,40.6
2022-08-22T15:28:21.000Z,40.6
2022-08-22T15:29:37.000Z,40.6
2022-08-22T15:30:53.000Z,40.7
2022-08-22T15:32:10.000Z,40.6
2022-08-22T15:33:26.000Z,39.9
2022-08-22T15:34:42.000Z,39.9
2022-08-22T15:35:58.000Z,40.3
2022-08-22T15:37:14.000Z,40.5
2022-08-22T15:38:31.000Z,41
2022-08-22T15:41:03.000Z,41.3
2022-08-22T15:42:18.000Z,41.6
2022-08-22T15:43:34.000Z,41.9
2022-08-22T15:44:51.000Z,41.9
2022-08-22T15:46:07.000Z,41.9
2022-08-22T15:47:23.000Z,41.6
2022-08-22T15:48:39.000Z,41.1
2022-08-22T15:49:55.000Z,41.3
2022-08-22T15:51:11.000Z,41.1
2022-08-22T15:52:26.000Z,41.1
2022-08-22T15:53:41.000Z,40.7
2022-08-22T15:54:56.000Z,40.5
2022-08-22T15:56:12.000Z,40.6
2022-08-22T15:57:29.000Z,40.7
2022-08-22T15:58:45.000Z,41
2022-08-22T16:00:01.000Z,40.9
2022-08-22T16:01:17.000Z,40.8
2022-08-22T16:02:33.000Z,40.8
2022-08-22T16:03:50.000Z,40.8
2022-08-22T16:06:22.000Z,40.9
2022-08-22T16:07:38.000Z,41.2
2022-08-22T16:08:54.000Z,41.1
2022-08-22T16:10:11.000Z,41.2
2022-08-22T16:11:26.000Z,41.3
2022-08-22T16:12:42.000Z,41.1
2022-08-22T16:13:58.000Z,41.3
2022-08-22T16:15:14.000Z,40.9
2022-08-22T16:16:31.000Z,41
2022-08-22T16:17:47.000Z,40.8
2022-08-22T16:19:03.000Z,40.8
2022-08-22T16:20:19.000Z,40.9
2022-08-22T16:21:34.000Z,40.9
2022-08-22T16:24:06.000Z,41.1
2022-08-22T16:25:22.000Z,41
2022-08-22T16:26:38.000Z,41
2022-08-22T16:27:54.000Z,40.4
2022-08-22T16:29:11.000Z,40.4
2022-08-22T16:30:27.000Z,40.5
2022-08-22T16:31:43.000Z,40.5
2022-08-22T16:32:59.000Z,40.4
2022-08-22T16:34:15.000Z,40.3
2022-08-22T16:35:32.000Z,40
2022-08-22T16:36:48.000Z,40
2022-08-22T16:38:04.000Z,40.3
2022-08-22T16:39:19.000Z,40.6
2022-08-22T16:40:35.000Z,40.9
2022-08-22T16:41:52.000Z,41
2022-08-22T16:44:24.000Z,41.6
2022-08-22T16:45:40.000Z,41.9
2022-08-22T16:46:56.000Z,42
2022-08-22T16:48:13.000Z,42.2
2022-08-22T16:49:29.000Z,42.4
2022-08-22T16:50:44.000Z,42.3
2022-08-22T16:51:59.000Z,41.7
2022-08-22T16:53:14.000Z,41.6
2022-08-22T16:54:30.000Z,41.6
2022-08-22T16:55:46.000Z,41.1
2022-08-22T16:57:02.000Z,40.9
2022-08-22T16:58:18.000Z,40.9
2022-08-22T16:59:34.000Z,41.1
2022-08-22T17:00:51.000Z,41
2022-08-22T17:02:07.000Z,41.1
2022-08-22T17:03:23.000Z,41.3
2022-08-22T17:04:39.000Z,41.4
2022-08-22T17:05:55.000Z,41.5
2022-08-22T17:07:12.000Z,41.5
2022-08-22T17:08:28.000Z,41.6
2022-08-22T17:09:44.000Z,41.6
2022-08-22T17:10:59.000Z,41.8
2022-08-22T17:12:15.000Z,41.9
2022-08-22T17:13:32.000Z,42.2
2022-08-22T17:14:48.000Z,42.5
2022-08-22T17:16:04.000Z,42.6
2022-08-22T17:17:20.000Z,42.6
2022-08-22T17:18:35.000Z,42.7
2022-08-22T17:19:51.000Z,42.8
2022-08-22T17:21:06.000Z,43
2022-08-22T17:23:38.000Z,42.9
2022-08-22T17:24:53.000Z,43
2022-08-22T17:26:09.000Z,43.2
2022-08-22T17:27:25.000Z,43.5
2022-08-22T17:28:41.000Z,43.8
2022-08-22T17:29:57.000Z,43.9
2022-08-22T17:31:13.000Z,44.2
2022-08-22T17:32:30.000Z,44.2
2022-08-22T17:33:46.000Z,43.7
2022-08-22T17:35:02.000Z,44
2022-08-22T17:36:18.000Z,44.3
2022-08-22T17:37:34.000Z,44.5
2022-08-22T17:38:51.000Z,44.4
2022-08-22T17:40:07.000Z,44.6